Hebei Shijiazhuang — VRIS2 — position and weather

sailwx.info

Track history (hours):
 
Tides and Currents Weather Stations Pressure Air Temp Water Temp Dewpoint Dewpoint Depression Visibility Wind Speed Wind Dir Waves Ship Positions

Hebei Shijiazhuang

Last reported at 2015-Feb-23 08:27 UTC. Time now 2015-Mar-03 22:36 UTC.
Position N 22°14' E 119°49'.
Warning: this ship's position is 8 days out of date.

Length 235 m.

Type: Cargo ship. MMSI: 477899000.

Date/timePositionNaut miles runAvg speedWind from/ knotsBaromVisibWave heightAir tempDewpointWater temp
2015-Feb-23 08:27N 22°14' E 119°49'1111.9
2015-Feb-23 07:33N 22°25' E 119°48'1110.7
2015-Feb-23 06:29N 22°36' E 119°48'7 7.9
2015-Feb-23 05:33N 22°43' E 119°48'8 7.6
2015-Feb-23 04:33N 22°51' E 119°48'  
2015-Feb-15 21:24N 22°58' E 119°56'1113.3
2015-Feb-15 20:33N 22°47' E 119°56'1212.5
2015-Feb-15 19:33N 22°35' E 119°56'1111.4
2015-Feb-15 18:33N 22°23' E 119°57'1211.5
2015-Feb-15 17:33N 22°12' E 119°59'  
Track history (hours):
 
Tides and Currents Weather Stations Pressure Air Temp Water Temp Dewpoint Dewpoint Depression Visibility Wind Speed Wind Dir Waves Ship Positions

Hebei Shijiazhuang

Last reported at 2015-Feb-23 08:27 UTC. Time now 2015-Mar-03 22:36 UTC.
Position N 22°14' E 119°49'.
Warning: this ship's position is 8 days out of date.

Length 235 m.

Type: Cargo ship. MMSI: 477899000.

Date/timePositionNaut miles runAvg speedWind from/ knotsBaromVisibWave heightAir tempDewpointWater temp
2015-Feb-23 08:27N 22°14' E 119°49'1111.9
2015-Feb-23 07:33N 22°25' E 119°48'1110.7
2015-Feb-23 06:29N 22°36' E 119°48'7 7.9
2015-Feb-23 05:33N 22°43' E 119°48'8 7.6
2015-Feb-23 04:33N 22°51' E 119°48'  
2015-Feb-15 21:24N 22°58' E 119°56'1113.3
2015-Feb-15 20:33N 22°47' E 119°56'1212.5
2015-Feb-15 19:33N 22°35' E 119°56'1111.4
2015-Feb-15 18:33N 22°23' E 119°57'1211.5
2015-Feb-15 17:33N 22°12' E 119°59'  

Dump ship's entire track history